Time;durP1;ratioP1;P1;durP2;ratioP2;P2;SDS_P1;SDS_P2;PMS_P1;PMS_P2;Temp;Humidity;BMP_temperature;BMP_pressure;BME280_temperature;BME280_humidity;BME280_pressure;Samples;Min_cycle;Max_cycle;Signal;HPM_P1;HPM_P2
2022/10/12 00:00:35;;;;;;;2.05;1.10;;;;;;;15.90;46.31;102388.21;1479532;95;21087;-50
2022/10/12 00:03:01;;;;;;;1.60;1.07;;;;;;;15.90;46.36;102390.84;1489303;96;21120;-50
2022/10/12 00:05:28;;;;;;;2.40;1.30;;;;;;;15.91;46.30;102389.92;1490307;96;21644;-50
2022/10/12 00:07:54;;;;;;;1.75;1.10;;;;;;;15.91;46.34;102393.86;1500297;92;21144;-50
2022/10/12 00:10:21;;;;;;;1.80;1.17;;;;;;;15.90;46.36;102389.97;1538526;91;21182;-52
2022/10/12 00:12:47;;;;;;;27.50;14.73;;;;;;;15.89;46.40;102389.09;1538896;91;21638;-51
2022/10/12 00:15:14;;;;;;;5.72;4.45;;;;;;;15.87;46.42;102393.50;1539408;92;21102;-53
2022/10/12 00:17:42;;;;;;;3.80;1.80;;;;;;;15.86;46.49;102389.59;1555096;90;21078;-51
2022/10/12 00:20:11;;;;;;;2.52;1.45;;;;;;;15.85;46.53;102392.66;1567361;90;21064;-51
2022/10/12 00:22:37;;;;;;;2.17;0.98;;;;;;;15.87;46.63;102392.19;1567727;90;21574;-51
2022/10/12 00:25:06;;;;;;;1.45;1.15;;;;;;;15.88;46.61;102397.88;1571787;89;21121;-51
2022/10/12 00:27:32;;;;;;;1.55;0.95;;;;;;;15.89;46.57;102399.59;1582563;89;21577;-51
2022/10/12 00:29:59;;;;;;;1.70;1.00;;;;;;;15.90;46.56;102396.09;1601596;87;21049;-51
2022/10/12 00:32:26;;;;;;;2.98;1.30;;;;;;;15.90;46.52;102396.52;1644038;87;21050;-50
2022/10/12 00:34:52;;;;;;;1.20;1.00;;;;;;;15.89;46.44;102402.22;1629126;86;21062;-53
2022/10/12 00:37:19;;;;;;;1.90;0.95;;;;;;;15.88;46.38;102397.88;1632614;86;21077;-50
2022/10/12 00:39:47;;;;;;;1.92;1.10;;;;;;;15.86;46.39;102398.35;1687143;84;21072;-52
2022/10/12 00:42:13;;;;;;;1.42;1.12;;;;;;;15.84;46.40;102404.07;1683888;84;21006;-50
2022/10/12 00:44:47;;;;;;;5.25;1.47;;;;;;;15.82;46.33;102399.30;1686816;85;21703;-50
2022/10/12 00:47:29;;;;;;;1.07;0.75;;;;;;;15.79;46.28;102396.71;1686979;84;21021;-53
2022/10/12 00:50:20;;;;;;;1.15;0.93;;;;;;;15.77;46.24;102397.19;1737893;81;21073;-56
2022/10/12 00:53:09;;;;;;;2.67;1.10;;;;;;;15.74;46.25;102396.37;1736519;81;21558;-53
2022/10/12 00:55:41;;;;;;;1.70;1.30;;;;;;;15.67;46.38;102403.48;1657522;86;21085;-54
2022/10/12 00:58:09;;;;;;;3.20;1.45;;;;;;;15.60;46.63;102400.52;1657853;86;21091;-49
2022/10/12 01:00:36;;;;;;;1.32;0.80;;;;;;;15.53;46.84;102400.22;1633940;86;21094;-50
2022/10/12 01:03:02;;;;;;;2.85;1.10;;;;;;;15.48;47.09;102400.73;1657274;85;21103;-51
2022/10/12 01:05:29;;;;;;;3.95;1.20;;;;;;;15.46;47.22;102398.58;1627022;86;21044;-57
2022/10/12 01:07:56;;;;;;;2.75;1.20;;;;;;;15.45;47.24;102406.04;1657382;85;21021;-50
2022/10/12 01:10:22;;;;;;;3.80;1.42;;;;;;;15.44;47.01;102402.55;1657412;85;21052;-52
2022/10/12 01:12:49;;;;;;;3.27;1.00;;;;;;;15.45;46.90;102403.41;1657541;86;21075;-50
2022/10/12 01:15:16;;;;;;;2.15;0.80;;;;;;;15.45;46.89;102398.17;1657386;85;21098;-55
2022/10/12 01:17:54;;;;;;;1.95;1.10;;;;;;;15.47;46.72;102399.02;1657461;85;21029;-50
2022/10/12 01:20:35;;;;;;;2.15;0.98;;;;;;;15.48;46.64;102394.64;1652643;85;21516;-50
2022/10/12 01:23:35;;;;;;;1.62;0.75;;;;;;;15.50;46.45;102397.63;1657788;85;21568;-51
2022/10/12 01:26:40;;;;;;;1.67;0.80;;;;;;;15.51;46.19;102394.13;1656056;85;21073;-52
2022/10/12 01:29:31;;;;;;;2.12;1.05;;;;;;;15.51;46.09;102394.13;1657685;85;21089;-52
2022/10/12 01:32:08;;;;;;;2.50;1.00;;;;;;;15.50;46.04;102396.32;1622047;87;21083;-51
2022/10/12 01:34:50;;;;;;;1.40;0.98;;;;;;;15.47;45.98;102395.08;1657549;85;21103;-50
2022/10/12 01:37:40;;;;;;;1.90;0.93;;;;;;;15.43;46.03;102396.86;1619345;87;21056;-50
2022/10/12 01:40:10;;;;;;;1.87;1.12;;;;;;;15.42;46.20;102406.04;1652095;85;21142;-51
2022/10/12 01:42:38;;;;;;;2.30;1.00;;;;;;;15.40;46.34;102401.27;1657576;85;21083;-51
2022/10/12 01:45:09;;;;;;;1.72;0.82;;;;;;;15.40;46.53;102407.38;1635441;85;21100;-52
2022/10/12 01:47:37;;;;;;;1.52;0.90;;;;;;;15.38;46.63;102405.66;1588211;88;21049;-50
2022/10/12 01:50:06;;;;;;;2.50;0.93;;;;;;;15.36;46.52;102402.20;1615876;86;21088;-51
2022/10/12 01:52:44;;;;;;;1.80;0.82;;;;;;;15.36;46.40;102410.07;1613978;86;21598;-49
2022/10/12 01:55:22;;;;;;;1.02;0.80;;;;;;;15.35;46.30;102406.57;1596899;88;21079;-53
2022/10/12 01:58:22;;;;;;;0.88;0.88;;;;;;;15.36;46.25;102412.69;1599486;88;21127;-52
2022/10/12 02:00:57;;;;;;;1.17;1.00;;;;;;;15.37;46.23;102407.41;1510413;94;21086;-52
2022/10/12 02:03:34;;;;;;;1.65;0.93;;;;;;;15.41;46.16;102410.88;1505545;95;21106;-50
2022/10/12 02:06:11;;;;;;;1.52;0.80;;;;;;;15.44;45.96;102406.91;1505214;95;21162;-50
2022/10/12 02:09:01;;;;;;;1.27;0.85;;;;;;;15.44;45.91;102412.16;1505404;95;21081;-51
2022/10/12 02:11:29;;;;;;;1.43;1.10;;;;;;;15.41;45.44;102410.88;1497070;95;21110;-49
2022/10/12 02:14:07;;;;;;;1.70;0.80;;;;;;;15.41;45.44;102410.88;1504187;93;21602;-50
2022/10/12 02:16:43;;;;;;;2.47;1.22;;;;;;;15.42;45.37;102416.13;1510375;95;21111;-50
2022/10/12 02:19:11;;;;;;;2.12;1.10;;;;;;;15.40;45.26;102416.56;1503734;95;21203;-53
2022/10/12 02:21:39;;;;;;;1.52;1.10;;;;;;;15.39;45.26;102415.28;1505298;95;21094;-55
2022/10/12 02:24:07;;;;;;;1.62;0.93;;;;;;;15.38;45.24;102417.03;1507196;95;21070;-50
2022/10/12 02:26:36;;;;;;;3.75;1.80;;;;;;;15.37;45.26;102418.38;1507687;94;21158;-50
2022/10/12 02:29:05;;;;;;;2.92;2.05;;;;;;;15.36;44.97;102417.94;1507195;95;21125;-51
2022/10/12 02:31:42;;;;;;;2.55;2.35;;;;;;;15.34;44.84;102418.41;1504189;93;22284;-50
2022/10/12 02:34:19;;;;;;;3.65;2.52;;;;;;;15.33;44.69;102418.00;1534638;92;21592;-50
2022/10/12 02:36:54;;;;;;;3.40;3.10;;;;;;;15.30;44.66;102418.91;1534848;93;21068;-51
2022/10/12 02:39:32;;;;;;;4.28;3.10;;;;;;;15.27;44.58;102415.47;1531136;93;21612;-50
2022/10/12 02:42:03;;;;;;;4.83;3.10;;;;;;;15.26;44.60;102415.03;1532705;93;21087;-52
2022/10/12 02:44:32;;;;;;;5.20;3.67;;;;;;;15.25;44.60;102415.47;1576655;88;21108;-50
2022/10/12 02:46:59;;;;;;;9.23;6.45;;;;;;;15.24;44.68;102412.87;1610395;88;21573;-50
2022/10/12 02:49:26;;;;;;;9.45;7.15;;;;;;;15.20;44.77;102415.12;1610081;88;21029;-54
2022/10/12 02:51:54;;;;;;;9.45;8.50;;;;;;;15.18;44.85;102416.91;1684169;83;21062;-51
2022/10/12 02:54:21;;;;;;;10.20;7.95;;;;;;;15.14;44.97;102413.47;1704447;82;21549;-50
2022/10/12 02:56:48;;;;;;;12.15;9.60;;;;;;;15.09;45.06;102419.64;1703292;82;21082;-53
2022/10/12 02:59:16;;;;;;;19.35;14.90;;;;;;;15.05;45.08;102419.27;1702634;82;21061;-50
2022/10/12 03:01:43;;;;;;;19.10;16.25;;;;;;;15.00;44.92;102413.23;1704233;83;21038;-50
2022/10/12 03:04:10;;;;;;;18.02;16.10;;;;;;;14.96;45.08;102415.48;1706827;82;21062;-51
2022/10/12 03:06:36;;;;;;;19.67;17.57;;;;;;;14.94;45.09;102418.56;1706040;82;21016;-50
2022/10/12 03:09:03;;;;;;;19.82;17.40;;;;;;;14.90;44.90;102414.25;1703793;82;21038;-52
2022/10/12 03:11:32;;;;;;;19.45;17.12;;;;;;;14.86;44.86;102414.71;1703583;82;21070;-53
2022/10/12 03:13:58;;;;;;;21.35;18.23;;;;;;;14.84;44.92;102409.09;1703451;82;21058;-55
2022/10/12 03:16:25;;;;;;;20.50;17.67;;;;;;;14.83;45.20;102405.59;1702927;82;21031;-51
2022/10/12 03:18:52;;;;;;;20.90;16.65;;;;;;;14.83;45.22;102413.89;1703776;81;21514;-51
2022/10/12 03:21:19;;;;;;;17.85;15.53;;;;;;;14.81;45.06;102411.73;1705957;82;21026;-51
2022/10/12 03:23:46;;;;;;;19.00;15.20;;;;;;;14.80;45.16;102415.23;1706366;82;21538;-50
2022/10/12 03:26:12;;;;;;;20.23;15.63;;;;;;;14.80;45.28;102416.10;1704908;82;21038;-51
2022/10/12 03:28:39;;;;;;;18.00;16.07;;;;;;;14.81;45.37;102412.61;1704445;82;21086;-50
2022/10/12 03:31:06;;;;;;;17.45;14.68;;;;;;;14.82;45.22;102418.73;1705303;83;21118;-52
2022/10/12 03:33:33;;;;;;;17.07;14.35;;;;;;;14.80;45.11;102417.84;1706278;82;21498;-49
2022/10/12 03:36:00;;;;;;;16.17;13.45;;;;;;;14.79;45.16;102417.44;1706335;82;21070;-50
2022/10/12 03:38:27;;;;;;;15.28;12.95;;;;;;;14.78;45.35;102421.80;1704852;82;21030;-50
2022/10/12 03:40:53;;;;;;;13.93;12.35;;;;;;;14.78;45.45;102417.00;1703083;82;21498;-50
2022/10/12 03:43:20;;;;;;;13.88;12.25;;;;;;;14.79;45.55;102413.52;1703143;82;21066;-51
2022/10/12 03:45:47;;;;;;;12.35;11.05;;;;;;;14.79;45.62;102416.13;1700474;82;21022;-50
2022/10/12 03:48:13;;;;;;;12.00;10.75;;;;;;;14.78;45.72;102413.07;1705993;82;21038;-51
2022/10/12 03:50:40;;;;;;;13.75;12.05;;;;;;;14.79;45.86;102410.89;1703370;82;21038;-51
2022/10/12 03:53:07;;;;;;;13.80;11.40;;;;;;;14.80;45.92;102412.61;1705409;82;21101;-54
2022/10/12 03:55:34;;;;;;;12.53;11.22;;;;;;;14.80;46.06;102409.98;1706184;83;21050;-51
2022/10/12 03:58:01;;;;;;;14.75;12.10;;;;;;;14.82;46.08;102408.25;1706270;82;21085;-51
2022/10/12 04:00:27;;;;;;;12.13;10.80;;;;;;;14.84;46.12;102406.00;1696806;82;21050;-51
2022/10/12 04:02:55;;;;;;;12.35;10.25;;;;;;;14.87;46.18;102409.91;1703520;82;21023;-51
2022/10/12 04:05:22;;;;;;;10.18;9.15;;;;;;;14.88;46.29;102403.77;1705430;82;21006;-51
2022/10/12 04:07:49;;;;;;;10.50;9.35;;;;;;;14.88;46.43;102404.23;1706212;82;21062;-52
2022/10/12 04:10:17;;;;;;;11.57;9.63;;;;;;;14.87;46.66;102402.48;1705820;82;21593;-51
2022/10/12 04:12:45;;;;;;;9.78;8.78;;;;;;;14.88;46.77;102402.92;1702172;83;21038;-54
2022/10/12 04:15:12;;;;;;;11.43;9.85;;;;;;;14.89;46.94;102400.70;1694955;82;21563;-51
2022/10/12 04:17:38;;;;;;;12.25;10.08;;;;;;;14.91;47.12;102414.22;1704866;82;21074;-53
2022/10/12 04:20:10;;;;;;;14.00;10.75;;;;;;;14.94;47.24;102412.02;1706358;82;21015;-53
2022/10/12 04:22:38;;;;;;;12.33;10.97;;;;;;;14.94;47.42;102412.02;1706120;82;21062;-51
2022/10/12 04:25:06;;;;;;;13.32;11.22;;;;;;;14.94;47.74;102418.56;1703328;82;21783;-52
2022/10/12 04:27:32;;;;;;;13.22;10.82;;;;;;;14.94;48.23;102413.32;1705106;82;21048;-52
2022/10/12 04:29:59;;;;;;;13.38;10.50;;;;;;;14.92;48.63;102413.31;1705855;83;21080;-50
2022/10/12 04:32:25;;;;;;;11.63;10.43;;;;;;;14.93;48.86;102412.87;1706194;82;21034;-50
2022/10/12 04:34:52;;;;;;;12.23;10.32;;;;;;;14.96;49.09;102416.79;1705885;82;21487;-53
2022/10/12 04:37:19;;;;;;;11.70;10.50;;;;;;;14.96;49.29;102417.63;1703118;82;21089;-54
2022/10/12 04:39:46;;;;;;;12.20;10.98;;;;;;;14.98;49.40;102417.63;1703337;82;21061;-50
2022/10/12 04:42:12;;;;;;;11.55;10.35;;;;;;;15.00;49.52;102422.41;1702831;82;21051;-51
2022/10/12 04:44:39;;;;;;;10.85;9.53;;;;;;;15.03;49.57;102423.66;1697777;83;21070;-55
2022/10/12 04:47:05;;;;;;;13.28;10.48;;;;;;;15.06;49.59;102417.95;1705252;82;21534;-50
2022/10/12 04:49:32;;;;;;;12.37;10.15;;;;;;;15.12;49.60;102422.23;1702934;82;21039;-54
2022/10/12 04:51:59;;;;;;;11.03;9.93;;;;;;;15.16;49.60;102423.92;1703772;82;21018;-56
2022/10/12 04:54:27;;;;;;;14.20;9.90;;;;;;;15.19;49.64;102422.55;1703208;81;21082;-51
2022/10/12 04:56:54;;;;;;;12.88;10.32;;;;;;;15.21;49.61;102423.40;1702874;81;21046;-51
2022/10/12 04:59:20;;;;;;;10.65;9.60;;;;;;;15.23;49.64;102428.17;1702127;82;21498;-50
2022/10/12 05:01:47;;;;;;;12.15;10.53;;;;;;;15.24;49.23;102428.62;1705226;83;21061;-51
2022/10/12 05:04:13;;;;;;;10.48;9.43;;;;;;;15.24;49.04;102429.92;1706128;82;21031;-50
2022/10/12 05:06:40;;;;;;;10.53;9.45;;;;;;;15.24;48.78;102429.49;1706239;82;21475;-51
2022/10/12 05:09:07;;;;;;;11.15;9.58;;;;;;;15.26;48.63;102435.58;1703933;82;21054;-50
2022/10/12 05:11:35;;;;;;;12.40;10.45;;;;;;;15.28;48.47;102440.80;1703425;82;21018;-50
2022/10/12 05:14:03;;;;;;;11.83;9.63;;;;;;;15.32;48.48;102442.48;1703139;82;21566;-51
2022/10/12 05:16:29;;;;;;;13.45;10.78;;;;;;;15.40;48.51;102451.10;1703114;82;21081;-52
2022/10/12 05:18:56;;;;;;;14.47;10.20;;;;;;;15.48;48.37;102446.64;1703616;82;21050;-53
2022/10/12 05:21:23;;;;;;;10.25;9.18;;;;;;;15.56;48.22;102453.10;1705730;82;21554;-50
2022/10/12 05:23:50;;;;;;;12.85;10.63;;;;;;;15.61;48.17;102447.31;1702421;82;21581;-53
2022/10/12 05:26:18;;;;;;;11.00;9.70;;;;;;;15.67;48.03;102455.09;1705534;83;20991;-53
2022/10/12 05:28:44;;;;;;;12.93;11.43;;;;;;;15.69;47.88;102451.56;1706145;82;21069;-50
2022/10/12 05:31:11;;;;;;;12.70;11.40;;;;;;;15.71;47.87;102458.09;1705942;82;21074;-53
2022/10/12 05:33:38;;;;;;;14.03;10.95;;;;;;;15.72;47.88;102451.53;1703597;82;21035;-52
2022/10/12 05:36:05;;;;;;;12.28;10.90;;;;;;;15.75;47.95;102451.45;1703315;82;21073;-55
2022/10/12 05:38:32;;;;;;;12.60;10.90;;;;;;;15.80;48.03;102454.89;1702932;82;21542;-54
2022/10/12 05:40:58;;;;;;;11.60;10.48;;;;;;;15.87;48.10;102451.25;1703689;82;21066;-51
2022/10/12 05:43:27;;;;;;;12.75;10.95;;;;;;;15.97;48.03;102451.52;1703480;82;21098;-51
2022/10/12 05:45:53;;;;;;;11.45;10.28;;;;;;;16.06;47.94;102457.94;1706240;82;21594;-51
2022/10/12 05:48:20;;;;;;;11.75;10.55;;;;;;;16.15;47.77;102452.53;1706261;82;21054;-51
2022/10/12 05:50:46;;;;;;;12.63;11.43;;;;;;;16.25;47.68;102463.29;1703883;82;21011;-51
2022/10/12 05:53:14;;;;;;;11.30;10.20;;;;;;;16.33;47.47;102460.95;1707758;82;21042;-51
2022/10/12 05:55:58;;;;;;;12.20;10.53;;;;;;;16.40;47.35;102467.84;1713421;82;21046;-51
2022/10/12 05:58:26;;;;;;;11.90;10.53;;;;;;;16.47;47.24;102464.18;1737875;82;21038;-50
2022/10/12 06:00:54;;;;;;;11.68;8.93;;;;;;;16.55;47.34;102468.44;1716568;82;21036;-51
2022/10/12 06:03:21;;;;;;;10.68;9.58;;;;;;;16.62;47.54;102477.07;1711099;82;21077;-50
2022/10/12 06:05:47;;;;;;;11.03;9.68;;;;;;;16.69;47.58;102476.07;1715121;81;21070;-53
2022/10/12 06:08:14;;;;;;;9.85;8.85;;;;;;;16.76;47.65;102472.41;1705491;82;21042;-53
2022/10/12 06:10:45;;;;;;;10.40;9.40;;;;;;;16.81;47.56;102471.44;1726961;82;21029;-51
2022/10/12 06:13:12;;;;;;;11.18;10.15;;;;;;;16.89;47.50;102481.78;1723773;82;21034;-50
2022/10/12 06:15:40;;;;;;;14.83;12.10;;;;;;;16.93;47.39;102486.09;1732770;80;21081;-49
2022/10/12 06:18:07;;;;;;;12.55;11.25;;;;;;;16.96;47.59;102488.66;1715915;82;21039;-53
2022/10/12 06:20:34;;;;;;;13.53;12.13;;;;;;;16.97;47.54;102489.06;1718248;82;20983;-49
2022/10/12 06:23:01;;;;;;;14.28;11.95;;;;;;;16.97;47.59;102486.00;1714507;82;21045;-50
2022/10/12 06:25:27;;;;;;;14.53;12.05;;;;;;;16.99;47.70;102499.10;1725007;82;20983;-51
2022/10/12 06:27:54;;;;;;;16.15;11.57;;;;;;;17.00;47.84;102498.22;1704553;82;21518;-50
2022/10/12 06:30:21;;;;;;;13.55;12.10;;;;;;;17.01;47.98;102501.25;1731519;82;21014;-50
2022/10/12 06:32:47;;;;;;;13.48;11.28;;;;;;;17.02;48.19;102508.27;1714260;82;21042;-51
2022/10/12 06:35:15;;;;;;;12.58;11.40;;;;;;;17.09;48.28;102505.90;1721127;82;21580;-50
2022/10/12 06:37:50;;;;;;;15.35;11.05;;;;;;;17.17;48.07;102509.23;1718643;82;20978;-55
2022/10/12 06:40:18;;;;;;;13.68;10.72;;;;;;;17.30;47.67;102511.16;1714216;82;21612;-53
2022/10/12 06:42:45;;;;;;;12.98;11.45;;;;;;;17.44;47.43;102512.59;1713566;81;21010;-50
2022/10/12 06:45:12;;;;;;;12.15;10.48;;;;;;;17.59;46.80;102508.34;1736293;82;21007;-50
2022/10/12 06:47:38;;;;;;;11.97;10.78;;;;;;;17.72;46.51;102506.28;1722704;82;20991;-54
2022/10/12 06:50:07;;;;;;;15.43;11.10;;;;;;;17.81;46.28;102516.14;1713657;82;21046;-51
2022/10/12 06:52:34;;;;;;;18.32;11.18;;;;;;;17.91;46.24;102515.45;1713459;82;21660;-51
2022/10/12 06:55:05;;;;;;;13.98;10.90;;;;;;;17.99;45.89;102517.92;1707601;82;21086;-52
2022/10/12 06:57:32;;;;;;;14.07;10.90;;;;;;;18.05;45.81;102512.50;1708621;82;21756;-53
2022/10/12 06:59:58;;;;;;;14.10;10.43;;;;;;;18.11;45.49;102512.34;1727613;82;21035;-53
2022/10/12 07:02:25;;;;;;;14.03;10.65;;;;;;;18.14;45.71;102506.98;1710411;82;21009;-53
2022/10/12 07:04:52;;;;;;;12.73;11.03;;;;;;;18.19;45.59;102513.02;1728461;82;21029;-52
2022/10/12 07:07:18;;;;;;;12.20;9.60;;;;;;;18.22;45.19;102508.97;1721876;82;21596;-50
2022/10/12 07:09:45;;;;;;;11.80;10.05;;;;;;;18.25;45.35;102507.59;1717789;82;21058;-50
2022/10/12 07:12:11;;;;;;;12.00;8.83;;;;;;;18.27;45.24;102508.41;1727812;82;21093;-51
2022/10/12 07:14:38;;;;;;;13.90;9.45;;;;;;;18.31;45.21;102510.06;1721221;81;21030;-51
2022/10/12 07:17:06;;;;;;;9.98;8.93;;;;;;;18.33;45.24;102510.89;1734600;82;21045;-54
2022/10/12 07:19:33;;;;;;;11.30;9.28;;;;;;;18.36;45.30;102510.83;1716532;82;21019;-50
2022/10/12 07:22:00;;;;;;;11.80;9.78;;;;;;;18.39;45.33;102506.33;1720188;82;21038;-50
2022/10/12 07:24:35;;;;;;;12.80;10.30;;;;;;;18.42;45.49;102508.86;1709452;81;21014;-52
2022/10/12 07:26:58;;;;;;;10.95;9.90;;;;;;;18.46;45.64;102505.75;1717764;81;21510;-51
2022/10/12 07:29:29;;;;;;;10.48;9.28;;;;;;;18.43;45.56;102509.73;1716300;82;20972;-52
2022/10/12 07:31:56;;;;;;;9.70;8.70;;;;;;;18.50;45.16;102511.35;1714329;82;21534;-50
2022/10/12 07:34:25;;;;;;;14.73;8.88;;;;;;;18.61;44.94;102507.95;1696936;82;21074;-51
2022/10/12 07:36:52;;;;;;;12.58;8.75;;;;;;;18.67;44.94;102509.10;1731510;82;20982;-51
2022/10/12 07:39:19;;;;;;;16.25;9.85;;;;;;;18.73;44.82;102505.01;1711317;82;20998;-53
2022/10/12 07:41:46;;;;;;;10.35;9.08;;;;;;;18.79;44.68;102507.47;1722533;82;21025;-53
2022/10/12 07:44:13;;;;;;;15.50;9.00;;;;;;;18.85;44.74;102508.62;1735413;82;21351;-52
2022/10/12 07:46:40;;;;;;;9.53;8.53;;;;;;;18.92;45.10;102508.83;1727023;82;21018;-49
2022/10/12 07:49:07;;;;;;;12.43;9.80;;;;;;;19.01;45.30;102516.94;1728999;81;20990;-51
2022/10/12 07:51:33;;;;;;;10.55;8.73;;;;;;;19.05;45.08;102508.91;1714734;82;20995;-50
2022/10/12 07:54:00;;;;;;;11.18;8.40;;;;;;;19.12;45.22;102510.47;1726826;81;21648;-52
2022/10/12 07:56:27;;;;;;;11.22;8.30;;;;;;;19.17;45.36;102505.90;1724167;82;21041;-51
2022/10/12 07:58:55;;;;;;;8.78;7.80;;;;;;;19.22;45.26;102506.64;1706254;82;21022;-52
2022/10/12 08:01:25;;;;;;;9.43;8.10;;;;;;;19.26;45.38;102505.64;1710640;82;21042;-55
2022/10/12 08:03:52;;;;;;;8.50;7.22;;;;;;;19.32;45.50;102510.73;1714235;82;21018;-51
2022/10/12 08:06:21;;;;;;;10.48;7.55;;;;;;;19.37;45.47;102504.03;1721719;82;21010;-55
2022/10/12 08:08:48;;;;;;;8.55;7.67;;;;;;;19.43;45.36;102505.16;1705058;82;21006;-52
2022/10/12 08:11:14;;;;;;;10.43;7.62;;;;;;;19.51;45.27;102506.23;1717250;81;21073;-48
2022/10/12 08:13:41;;;;;;;8.00;7.20;;;;;;;19.56;44.61;102509.61;1731317;82;21022;-52
2022/10/12 08:16:12;;;;;;;9.65;7.10;;;;;;;19.63;44.45;102505.84;1736231;82;20962;-53
2022/10/12 08:18:39;;;;;;;8.25;7.45;;;;;;;19.70;44.31;102501.63;1658574;85;21109;-52
2022/10/12 08:21:06;;;;;;;10.25;7.58;;;;;;;19.77;44.11;102504.50;1660048;85;21048;-50
2022/10/12 08:23:33;;;;;;;8.30;7.15;;;;;;;19.84;43.58;102507.36;1664253;85;21729;-53
2022/10/12 08:26:00;;;;;;;8.68;7.55;;;;;;;19.90;43.55;102503.64;1668689;85;21051;-53
2022/10/12 08:28:27;;;;;;;7.72;6.85;;;;;;;19.94;43.41;102494.70;1670562;85;21056;-52
2022/10/12 08:30:54;;;;;;;7.30;6.60;;;;;;;19.96;43.26;102499.48;1658227;85;21581;-50
2022/10/12 08:33:20;;;;;;;10.05;7.50;;;;;;;19.97;43.26;102493.30;1659861;85;21125;-50
2022/10/12 08:35:48;;;;;;;9.30;6.80;;;;;;;20.03;42.99;102495.25;1663427;85;21029;-51
2022/10/12 08:38:15;;;;;;;9.98;7.00;;;;;;;20.05;43.08;102492.58;1665594;85;21583;-53
2022/10/12 08:41:02;;;;;;;9.75;6.65;;;;;;;20.08;43.23;102493.78;1656843;85;21130;-51
2022/10/12 08:44:10;;;;;;;8.58;6.25;;;;;;;20.14;42.95;102498.86;1659117;85;21047;-56
2022/10/12 08:46:38;;;;;;;8.05;6.00;;;;;;;20.19;42.88;102492.97;1660760;85;21092;-52
2022/10/12 08:49:15;;;;;;;9.35;7.00;;;;;;;20.19;43.00;102495.61;1664477;85;21057;-49
2022/10/12 08:51:55;;;;;;;8.45;6.72;;;;;;;20.33;43.01;102495.16;1629963;86;21062;-50
2022/10/12 08:54:27;;;;;;;6.83;5.95;;;;;;;20.30;42.72;102493.48;1601298;88;21069;-50
2022/10/12 08:56:54;;;;;;;5.95;5.40;;;;;;;20.49;42.15;102494.58;1608166;88;21098;-50
2022/10/12 08:59:20;;;;;;;8.40;5.75;;;;;;;20.57;41.99;102495.16;1614419;88;21101;-50
2022/10/12 09:02:21;;;;;;;7.00;6.20;;;;;;;20.65;41.66;102494.91;1604558;89;21101;-50
2022/10/12 09:05:00;;;;;;;5.90;5.30;;;;;;;20.69;41.54;102493.39;1542712;92;21166;-50
2022/10/12 09:07:41;;;;;;;5.83;5.15;;;;;;;20.76;41.28;102493.59;1544106;92;21522;-49
2022/10/12 09:10:20;;;;;;;5.75;5.15;;;;;;;20.78;41.29;102487.78;1466836;97;21098;-50
2022/10/12 09:13:30;;;;;;;5.90;5.12;;;;;;;20.82;41.02;102485.42;1441761;98;21127;-49
2022/10/12 09:16:07;;;;;;;5.22;4.72;;;;;;;20.72;41.26;102481.39;1406623;101;21092;-50
2022/10/12 09:18:40;;;;;;;6.40;5.30;;;;;;;20.74;41.25;102489.27;1403644;101;21192;-55
2022/10/12 09:21:11;;;;;;;7.35;5.28;;;;;;;20.78;41.39;102485.13;1411856;101;21120;-51
2022/10/12 09:23:40;;;;;;;5.28;4.70;;;;;;;20.81;41.54;102486.33;1412455;101;21173;-50
2022/10/12 09:26:30;;;;;;;5.47;4.97;;;;;;;20.85;41.49;102484.45;1410753;101;21209;-55
2022/10/12 09:28:57;;;;;;;4.80;4.40;;;;;;;20.90;41.31;102486.00;1405847;101;21151;-50
2022/10/12 09:31:59;;;;;;;6.35;4.80;;;;;;;20.95;41.36;102489.36;1406573;101;21112;-51
2022/10/12 09:34:25;;;;;;;5.47;4.25;;;;;;;21.01;41.45;102489.12;1410478;101;21143;-52
2022/10/12 09:36:52;;;;;;;5.33;4.00;;;;;;;21.08;40.98;102481.85;1413685;101;21214;-50
2022/10/12 09:39:24;;;;;;;6.67;4.00;;;;;;;21.14;41.08;102483.39;1411236;101;21101;-49
2022/10/12 09:41:50;;;;;;;4.25;3.85;;;;;;;21.20;40.62;102478.73;1407602;102;21687;-50
2022/10/12 09:44:39;;;;;;;4.72;3.98;;;;;;;21.26;40.27;102473.19;1415018;100;21112;-51
2022/10/12 09:47:28;;;;;;;7.50;4.15;;;;;;;21.32;39.62;102479.57;1411885;100;21121;-48
2022/10/12 09:50:01;;;;;;;4.03;3.60;;;;;;;21.36;39.22;102475.88;1387425;102;21143;-51
2022/10/12 09:52:33;;;;;;;4.50;3.92;;;;;;;21.40;39.34;102472.19;1405515;97;21618;-50
2022/10/12 09:55:02;;;;;;;4.53;3.67;;;;;;;21.42;39.13;102476.95;1423751;99;21178;-50
2022/10/12 09:57:35;;;;;;;4.05;3.72;;;;;;;21.42;39.15;102474.77;1439337;99;21192;-50
2022/10/12 10:00:19;;;;;;;5.08;3.72;;;;;;;21.44;39.35;102472.92;1416506;100;21079;-52
2022/10/12 10:02:48;;;;;;;6.55;3.83;;;;;;;21.46;39.25;102476.36;1357635;104;21191;-50
2022/10/12 10:05:33;;;;;;;4.45;3.30;;;;;;;21.46;39.28;102469.75;1359173;105;21130;-49
2022/10/12 10:08:20;;;;;;;4.25;3.52;;;;;;;21.58;39.30;102474.55;1405342;100;21160;-51
2022/10/12 10:10:57;;;;;;;4.70;3.20;;;;;;;21.60;39.19;102470.92;1399368;101;21105;-54
2022/10/12 10:13:28;;;;;;;5.92;3.10;;;;;;;21.60;39.09;102472.70;1374248;104;21276;-49
2022/10/12 10:16:06;;;;;;;6.55;3.22;;;;;;;21.56;39.07;102471.09;1369770;104;21150;-49
2022/10/12 10:18:42;;;;;;;6.08;2.87;;;;;;;21.42;39.58;102468.14;1368971;104;21632;-51
2022/10/12 10:21:10;;;;;;;3.30;3.00;;;;;;;21.39;39.88;102470.93;1374570;104;21193;-51
2022/10/12 10:23:51;;;;;;;3.40;3.10;;;;;;;21.35;40.08;102469.33;1370164;104;22692;-52
2022/10/12 10:26:20;;;;;;;3.90;2.77;;;;;;;21.31;40.30;102461.95;1367258;104;21157;-52
2022/10/12 10:28:48;;;;;;;3.72;2.90;;;;;;;21.28;40.70;102459.44;1346811;106;21137;-51
2022/10/12 10:31:23;;;;;;;4.08;3.05;;;;;;;21.28;40.98;102454.59;1334799;106;21643;-52
2022/10/12 10:34:15;;;;;;;3.72;3.10;;;;;;;21.28;41.34;102455.46;1349937;105;21155;-53
2022/10/12 10:36:52;;;;;;;4.08;3.58;;;;;;;21.31;41.89;102459.30;1366899;104;21647;-50
2022/10/12 10:39:27;;;;;;;5.58;3.17;;;;;;;21.36;42.07;102456.47;1414958;96;21114;-54
2022/10/12 10:41:55;;;;;;;5.22;3.20;;;;;;;21.41;42.25;102455.84;1480005;96;21113;-50
2022/10/12 10:44:31;;;;;;;7.72;2.92;;;;;;;21.45;41.89;102453.47;1477508;96;21037;-52
2022/10/12 10:47:05;;;;;;;4.22;3.47;;;;;;;21.49;41.41;102451.09;1458176;97;21163;-51
2022/10/12 10:49:42;;;;;;;5.50;3.30;;;;;;;21.51;41.09;102451.90;1405816;100;21216;-51
2022/10/12 10:52:30;;;;;;;3.75;3.25;;;;;;;21.52;40.95;102443.87;1432581;97;21128;-56
2022/10/12 10:55:11;;;;;;;6.62;3.37;;;;;;;21.56;40.67;102449.91;1449016;97;21091;-51
2022/10/12 10:57:47;;;;;;;6.78;4.87;;;;;;;21.60;40.92;102445.75;1465006;96;21147;-50
2022/10/12 11:00:16;;;;;;;5.05;3.20;;;;;;;21.65;40.74;102445.57;1439333;98;21180;-53
2022/10/12 11:02:55;;;;;;;5.70;4.80;;;;;;;21.69;40.68;102441.87;1422888;98;21122;-53
2022/10/12 11:05:45;;;;;;;6.72;4.72;;;;;;;21.74;40.27;102435.94;1438473;98;21138;-50
2022/10/12 11:08:24;;;;;;;12.47;5.17;;;;;;;21.88;39.75;102434.92;1413415;100;21163;-52
2022/10/12 11:11:05;;;;;;;5.03;3.20;;;;;;;21.95;39.54;102433.72;1396462;101;21158;-52
2022/10/12 11:13:35;;;;;;;7.97;4.05;;;;;;;22.01;39.84;102428.64;1376840;103;21157;-51
2022/10/12 11:16:36;;;;;;;7.55;4.85;;;;;;;22.07;39.94;102431.86;1377716;103;21161;-49
2022/10/12 11:19:46;;;;;;;6.87;3.33;;;;;;;22.13;40.02;102428.97;1373222;103;21121;-51
2022/10/12 11:22:24;;;;;;;3.90;3.37;;;;;;;22.20;39.67;102430.88;1372658;103;21126;-50
2022/10/12 11:24:58;;;;;;;41.13;16.73;;;;;;;22.25;39.44;102427.11;1310523;108;21260;-53
2022/10/12 11:27:35;;;;;;;15.25;7.95;;;;;;;22.29;39.49;102427.38;1307415;108;21219;-50
2022/10/12 11:30:07;;;;;;;23.05;11.83;;;;;;;22.33;39.99;102423.66;1307930;107;21766;-52
2022/10/12 11:32:53;;;;;;;7.15;5.45;;;;;;;22.37;40.50;102425.23;1305359;109;21208;-51
2022/10/12 11:35:34;;;;;;;13.40;8.10;;;;;;;22.42;40.18;102427.69;1293583;109;21233;-51